This is the latest recevied weather packets stored in our database for station/object KK4WXG. If no packets are shown the sender has not sent any weather packets the latest 10 day(s).
| Time | Temp. | Humidity | Pressure | Rain* | Wind** | Luminosity | Snow |
|---|---|---|---|---|---|---|---|
| 1777605470 | 8.89° C | 64% | 1013.6 hPa | 0 mm | - | 0 W/m² | - |
| 1777605168 | 8.89° C | 63% | 1013.7 hPa | 0 mm | - | 0 W/m² | - |
| 1777604863 | 8.89° C | 62% | 1013.8 hPa | 0 mm | - | 0 W/m² | - |
| 1777604559 | 9.44° C | 61% | 1013.7 hPa | 0 mm | - | 0 W/m² | - |
| 1777604255 | 9.44° C | 61% | 1013.9 hPa | 0 mm | - | 0 W/m² | - |
| 1777603951 | 9.44° C | 61% | 1013.8 hPa | 0 mm | - | 0 W/m² | - |
| 1777603648 | 9.44° C | 61% | 1013.6 hPa | 0 mm | - | 0 W/m² | - |
| 1777603344 | 9.44° C | 61% | 1013.6 hPa | 0 mm | - | 0 W/m² | - |
| 1777603040 | 9.44° C | 61% | 1013.5 hPa | 0 mm | - | 0 W/m² | - |
| 1777602735 | 9.44° C | 61% | 1013.8 hPa | 0 mm | - | 0 W/m² | - |
| 1777602430 | 9.44° C | 61% | 1013.8 hPa | 0 mm | - | 0 W/m² | - |
| 1777602127 | 9.44° C | 61% | 1013.7 hPa | 0 mm | - | 0 W/m² | - |
| 1777601822 | 10° C | 61% | 1013.8 hPa | 0 mm | - | 0 W/m² | - |
| 1777587245 | 15° C | 53% | 1010.3 hPa | 0 mm | - | 268 W/m² | - |
| 1777586031 | 15° C | 53% | 1010 hPa | 0 mm | - | 95 W/m² | - |
| 1777585126 | 16.11° C | 48% | 1009.8 hPa | 0 mm | - | 109 W/m² | - |
| 1777583612 | 16.11° C | 48% | 1009.3 hPa | 0 mm | - | 274 W/m² | - |
| 1777583311 | 17.22° C | 46% | 1009.3 hPa | 0 mm | - | 513 W/m² | - |
| 1777580282 | 17.78° C | 47% | 1008.7 hPa | 0 mm | - | 718 W/m² | - |
| 1777579675 | 17.78° C | 45% | 1008.7 hPa | 0 mm | - | 718 W/m² | - |
| 1777578764 | 18.89° C | 41% | 1008.3 hPa | 0 mm | - | 788 W/m² | - |
| 1777576335 | 19.44° C | 42% | 1007.8 hPa | 0 mm | - | 923 W/m² | - |
| 1777574210 | 18.33° C | 41% | 1007.9 hPa | 0 mm | - | 1026 W/m² | - |
| 1777573905 | 18.89° C | 42% | 1007.9 hPa | 0 mm | - | 989 W/m² | - |
| 1777573302 | 18.89° C | 43% | 1007.9 hPa | 0 mm | - | 1003 W/m² | - |
* Rain latest hour (hover to see other rain measurements)
** Current wind speed in m/s (hover to see current wind gust speed)